sensor_id;sensor_type;location;lat;lon;timestamp;temperature;humidity
6462;DHT22;3264;42.862;25.098;2024-02-15T00:02:05;6.40;99.90
6462;DHT22;3264;42.862;25.098;2024-02-15T00:04:33;6.40;99.90
6462;DHT22;3264;42.862;25.098;2024-02-15T00:07:04;6.50;99.90
6462;DHT22;3264;42.862;25.098;2024-02-15T00:09:32;6.50;99.90
6462;DHT22;3264;42.862;25.098;2024-02-15T00:12:01;6.50;99.90
6462;DHT22;3264;42.862;25.098;2024-02-15T00:14:29;6.50;99.90
6462;DHT22;3264;42.862;25.098;2024-02-15T00:16:58;6.40;99.90
6462;DHT22;3264;42.862;25.098;2024-02-15T00:19:27;6.40;99.90
6462;DHT22;3264;42.862;25.098;2024-02-15T00:21:56;6.40;99.90
6462;DHT22;3264;42.862;25.098;2024-02-15T00:24:27;6.40;99.90
6462;DHT22;3264;42.862;25.098;2024-02-15T00:26:57;6.40;99.90
6462;DHT22;3264;42.862;25.098;2024-02-15T00:29:26;6.40;99.90
6462;DHT22;3264;42.862;25.098;2024-02-15T00:31:55;6.40;99.90
6462;DHT22;3264;42.862;25.098;2024-02-15T00:34:23;6.40;99.90
6462;DHT22;3264;42.862;25.098;2024-02-15T00:36:53;6.40;99.90
6462;DHT22;3264;42.862;25.098;2024-02-15T00:39:22;6.40;99.90
6462;DHT22;3264;42.862;25.098;2024-02-15T00:41:51;6.40;99.90
6462;DHT22;3264;42.862;25.098;2024-02-15T00:44:20;6.30;99.90
6462;DHT22;3264;42.862;25.098;2024-02-15T00:46:48;6.30;99.90
6462;DHT22;3264;42.862;25.098;2024-02-15T00:49:17;6.30;99.90
6462;DHT22;3264;42.862;25.098;2024-02-15T00:51:47;6.20;99.90
6462;DHT22;3264;42.862;25.098;2024-02-15T00:54:15;6.20;99.90
6462;DHT22;3264;42.862;25.098;2024-02-15T00:56:44;6.10;99.90
6462;DHT22;3264;42.862;25.098;2024-02-15T00:59:14;6.20;99.90
6462;DHT22;3264;42.862;25.098;2024-02-15T01:01:42;6.30;99.90
6462;DHT22;3264;42.862;25.098;2024-02-15T01:04:11;6.40;99.90
6462;DHT22;3264;42.862;25.098;2024-02-15T01:06:39;6.40;99.90
6462;DHT22;3264;42.862;25.098;2024-02-15T01:09:08;6.40;99.70
6462;DHT22;3264;42.862;25.098;2024-02-15T01:11:36;6.40;99.30
6462;DHT22;3264;42.862;25.098;2024-02-15T01:14:04;6.50;99.30
6462;DHT22;3264;42.862;25.098;2024-02-15T01:16:38;6.50;98.60
6462;DHT22;3264;42.862;25.098;2024-02-15T01:19:07;6.50;98.70
6462;DHT22;3264;42.862;25.098;2024-02-15T01:21:35;6.60;97.90
6462;DHT22;3264;42.862;25.098;2024-02-15T01:24:04;6.60;97.30
6462;DHT22;3264;42.862;25.098;2024-02-15T01:26:33;6.70;97.60
6462;DHT22;3264;42.862;25.098;2024-02-15T01:29:01;6.50;98.30
6462;DHT22;3264;42.862;25.098;2024-02-15T01:31:31;6.50;98.80
6462;DHT22;3264;42.862;25.098;2024-02-15T01:34:01;6.50;99.00
6462;DHT22;3264;42.862;25.098;2024-02-15T01:36:30;6.50;99.30
6462;DHT22;3264;42.862;25.098;2024-02-15T01:38:58;6.50;99.30
6462;DHT22;3264;42.862;25.098;2024-02-15T01:41:25;6.50;99.40
6462;DHT22;3264;42.862;25.098;2024-02-15T01:43:54;6.60;99.70
6462;DHT22;3264;42.862;25.098;2024-02-15T01:46:23;6.60;99.80
6462;DHT22;3264;42.862;25.098;2024-02-15T01:48:51;6.60;99.90
6462;DHT22;3264;42.862;25.098;2024-02-15T01:51:21;6.50;99.90
6462;DHT22;3264;42.862;25.098;2024-02-15T01:53:53;6.50;99.80
6462;DHT22;3264;42.862;25.098;2024-02-15T01:56:23;6.50;99.90
6462;DHT22;3264;42.862;25.098;2024-02-15T01:58:53;6.60;99.90
6462;DHT22;3264;42.862;25.098;2024-02-15T02:01:22;6.60;99.90
6462;DHT22;3264;42.862;25.098;2024-02-15T02:03:50;6.60;99.90
6462;DHT22;3264;42.862;25.098;2024-02-15T02:06:19;6.50;99.90
6462;DHT22;3264;42.862;25.098;2024-02-15T02:08:49;6.40;99.90
6462;DHT22;3264;42.862;25.098;2024-02-15T02:11:17;6.40;99.90
6462;DHT22;3264;42.862;25.098;2024-02-15T02:13:45;6.40;99.90
6462;DHT22;3264;42.862;25.098;2024-02-15T02:16:25;6.40;99.90
6462;DHT22;3264;42.862;25.098;2024-02-15T02:18:56;6.40;99.90
6462;DHT22;3264;42.862;25.098;2024-02-15T02:21:24;6.50;99.90
6462;DHT22;3264;42.862;25.098;2024-02-15T02:23:56;6.50;99.90
6462;DHT22;3264;42.862;25.098;2024-02-15T02:26:26;6.50;99.90
6462;DHT22;3264;42.862;25.098;2024-02-15T02:28:54;6.50;99.90
6462;DHT22;3264;42.862;25.098;2024-02-15T02:31:22;6.50;99.90
6462;DHT22;3264;42.862;25.098;2024-02-15T02:33:53;6.50;99.90
6462;DHT22;3264;42.862;25.098;2024-02-15T02:36:25;6.50;99.90
6462;DHT22;3264;42.862;25.098;2024-02-15T02:38:54;6.50;99.90
6462;DHT22;3264;42.862;25.098;2024-02-15T02:41:21;6.50;99.90
6462;DHT22;3264;42.862;25.098;2024-02-15T02:43:51;6.50;99.90
6462;DHT22;3264;42.862;25.098;2024-02-15T02:46:19;6.50;99.90
6462;DHT22;3264;42.862;25.098;2024-02-15T02:48:47;6.50;99.90
6462;DHT22;3264;42.862;25.098;2024-02-15T02:51:16;6.40;99.90
6462;DHT22;3264;42.862;25.098;2024-02-15T02:53:45;6.40;99.90
6462;DHT22;3264;42.862;25.098;2024-02-15T02:56:13;6.40;99.90
6462;DHT22;3264;42.862;25.098;2024-02-15T02:58:42;6.50;99.90
6462;DHT22;3264;42.862;25.098;2024-02-15T03:01:12;6.50;99.90
6462;DHT22;3264;42.862;25.098;2024-02-15T03:03:41;6.50;99.90
6462;DHT22;3264;42.862;25.098;2024-02-15T03:06:10;6.40;99.90
6462;DHT22;3264;42.862;25.098;2024-02-15T03:08:38;6.40;99.90
6462;DHT22;3264;42.862;25.098;2024-02-15T03:11:06;6.40;99.90
6462;DHT22;3264;42.862;25.098;2024-02-15T03:13:34;6.40;99.90
6462;DHT22;3264;42.862;25.098;2024-02-15T03:16:02;6.40;99.90
6462;DHT22;3264;42.862;25.098;2024-02-15T03:18:33;6.40;99.90
6462;DHT22;3264;42.862;25.098;2024-02-15T03:21:02;6.50;99.90
6462;DHT22;3264;42.862;25.098;2024-02-15T03:23:30;6.50;99.90
6462;DHT22;3264;42.862;25.098;2024-02-15T03:26:02;6.40;99.90
6462;DHT22;3264;42.862;25.098;2024-02-15T03:28:30;6.40;99.90
6462;DHT22;3264;42.862;25.098;2024-02-15T03:30:59;6.40;99.90
6462;DHT22;3264;42.862;25.098;2024-02-15T03:33:28;6.40;99.90
6462;DHT22;3264;42.862;25.098;2024-02-15T03:36:02;6.40;99.90
6462;DHT22;3264;42.862;25.098;2024-02-15T03:38:30;6.40;99.90
6462;DHT22;3264;42.862;25.098;2024-02-15T03:40:59;6.40;99.90
6462;DHT22;3264;42.862;25.098;2024-02-15T03:43:29;6.40;99.90
6462;DHT22;3264;42.862;25.098;2024-02-15T03:45:57;6.40;99.90
6462;DHT22;3264;42.862;25.098;2024-02-15T03:48:25;6.40;99.90
6462;DHT22;3264;42.862;25.098;2024-02-15T03:50:54;6.40;99.90
6462;DHT22;3264;42.862;25.098;2024-02-15T03:53:24;6.40;99.90
6462;DHT22;3264;42.862;25.098;2024-02-15T03:55:54;6.40;99.90
6462;DHT22;3264;42.862;25.098;2024-02-15T03:58:23;6.30;99.90
6462;DHT22;3264;42.862;25.098;2024-02-15T04:00:51;6.30;99.90
6462;DHT22;3264;42.862;25.098;2024-02-15T04:03:20;6.20;99.90
6462;DHT22;3264;42.862;25.098;2024-02-15T04:05:48;6.20;99.90
6462;DHT22;3264;42.862;25.098;2024-02-15T04:08:16;6.10;99.90
6462;DHT22;3264;42.862;25.098;2024-02-15T04:10:47;6.10;99.90
6462;DHT22;3264;42.862;25.098;2024-02-15T04:13:16;6.10;99.90
6462;DHT22;3264;42.862;25.098;2024-02-15T04:15:44;6.20;99.90
6462;DHT22;3264;42.862;25.098;2024-02-15T04:18:13;6.20;99.90
6462;DHT22;3264;42.862;25.098;2024-02-15T04:20:40;6.30;99.90
6462;DHT22;3264;42.862;25.098;2024-02-15T04:23:12;6.20;99.90
6462;DHT22;3264;42.862;25.098;2024-02-15T04:25:40;6.30;99.90
6462;DHT22;3264;42.862;25.098;2024-02-15T04:28:12;6.30;99.90
6462;DHT22;3264;42.862;25.098;2024-02-15T04:30:40;6.30;99.90
6462;DHT22;3264;42.862;25.098;2024-02-15T04:33:09;6.30;99.90
6462;DHT22;3264;42.862;25.098;2024-02-15T04:35:37;6.30;99.90
6462;DHT22;3264;42.862;25.098;2024-02-15T04:38:06;6.30;99.90
6462;DHT22;3264;42.862;25.098;2024-02-15T04:40:35;6.30;99.90
6462;DHT22;3264;42.862;25.098;2024-02-15T04:43:05;6.30;99.90
6462;DHT22;3264;42.862;25.098;2024-02-15T04:45:36;6.20;99.90
6462;DHT22;3264;42.862;25.098;2024-02-15T04:48:05;6.20;99.90
6462;DHT22;3264;42.862;25.098;2024-02-15T04:50:34;6.20;99.50
6462;DHT22;3264;42.862;25.098;2024-02-15T04:53:02;6.20;99.80
6462;DHT22;3264;42.862;25.098;2024-02-15T04:55:31;6.20;99.90
6462;DHT22;3264;42.862;25.098;2024-02-15T04:57:59;6.30;99.90
6462;DHT22;3264;42.862;25.098;2024-02-15T05:00:27;6.30;99.90
6462;DHT22;3264;42.862;25.098;2024-02-15T05:02:57;6.30;99.90
6462;DHT22;3264;42.862;25.098;2024-02-15T05:05:25;6.30;99.90
6462;DHT22;3264;42.862;25.098;2024-02-15T05:07:54;6.30;99.90
6462;DHT22;3264;42.862;25.098;2024-02-15T05:10:23;6.30;99.90
6462;DHT22;3264;42.862;25.098;2024-02-15T05:12:51;6.30;99.90
6462;DHT22;3264;42.862;25.098;2024-02-15T05:15:20;6.30;99.80
6462;DHT22;3264;42.862;25.098;2024-02-15T05:17:51;6.30;99.60
6462;DHT22;3264;42.862;25.098;2024-02-15T05:20:21;6.30;98.90
6462;DHT22;3264;42.862;25.098;2024-02-15T05:22:51;6.30;98.60
6462;DHT22;3264;42.862;25.098;2024-02-15T05:25:20;6.30;98.70
6462;DHT22;3264;42.862;25.098;2024-02-15T05:27:51;6.30;98.80
6462;DHT22;3264;42.862;25.098;2024-02-15T05:30:19;6.30;98.90
6462;DHT22;3264;42.862;25.098;2024-02-15T05:32:47;6.30;99.00
6462;DHT22;3264;42.862;25.098;2024-02-15T05:35:15;6.30;99.10
6462;DHT22;3264;42.862;25.098;2024-02-15T05:37:45;6.30;99.10
6462;DHT22;3264;42.862;25.098;2024-02-15T05:40:13;6.30;98.90
6462;DHT22;3264;42.862;25.098;2024-02-15T05:42:42;6.30;98.70
6462;DHT22;3264;42.862;25.098;2024-02-15T05:45:31;6.30;98.50
6462;DHT22;3264;42.862;25.098;2024-02-15T05:48:05;6.20;98.20
6462;DHT22;3264;42.862;25.098;2024-02-15T05:50:39;6.20;98.30
6462;DHT22;3264;42.862;25.098;2024-02-15T05:53:08;6.20;97.70
6462;DHT22;3264;42.862;25.098;2024-02-15T05:55:36;6.20;97.20
6462;DHT22;3264;42.862;25.098;2024-02-15T05:58:07;6.10;96.60
6462;DHT22;3264;42.862;25.098;2024-02-15T06:00:37;6.10;96.60
6462;DHT22;3264;42.862;25.098;2024-02-15T06:03:07;6.10;96.50
6462;DHT22;3264;42.862;25.098;2024-02-15T06:05:36;5.90;95.20
6462;DHT22;3264;42.862;25.098;2024-02-15T06:08:05;5.90;95.30
6462;DHT22;3264;42.862;25.098;2024-02-15T06:10:35;5.90;95.40
6462;DHT22;3264;42.862;25.098;2024-02-15T06:13:03;6.00;95.30
6462;DHT22;3264;42.862;25.098;2024-02-15T06:15:31;6.10;95.10
6462;DHT22;3264;42.862;25.098;2024-02-15T06:18:00;6.10;94.70
6462;DHT22;3264;42.862;25.098;2024-02-15T06:20:29;6.20;94.40
6462;DHT22;3264;42.862;25.098;2024-02-15T06:22:57;6.30;94.20
6462;DHT22;3264;42.862;25.098;2024-02-15T06:25:25;6.40;94.60
6462;DHT22;3264;42.862;25.098;2024-02-15T06:27:56;6.50;94.30
6462;DHT22;3264;42.862;25.098;2024-02-15T06:30:28;6.40;93.00
6462;DHT22;3264;42.862;25.098;2024-02-15T06:33:13;6.40;92.90
6462;DHT22;3264;42.862;25.098;2024-02-15T06:35:59;6.30;92.50
6462;DHT22;3264;42.862;25.098;2024-02-15T06:38:49;6.40;93.30
6462;DHT22;3264;42.862;25.098;2024-02-15T06:41:33;6.40;92.80
6462;DHT22;3264;42.862;25.098;2024-02-15T06:44:03;6.40;92.30
6462;DHT22;3264;42.862;25.098;2024-02-15T06:46:30;6.30;91.80
6462;DHT22;3264;42.862;25.098;2024-02-15T06:48:59;6.30;92.20
6462;DHT22;3264;42.862;25.098;2024-02-15T06:51:27;6.40;92.30
6462;DHT22;3264;42.862;25.098;2024-02-15T06:53:56;6.30;92.00
6462;DHT22;3264;42.862;25.098;2024-02-15T06:56:24;6.40;91.90
6462;DHT22;3264;42.862;25.098;2024-02-15T06:58:53;6.40;91.90
6462;DHT22;3264;42.862;25.098;2024-02-15T07:01:25;6.40;91.80
6462;DHT22;3264;42.862;25.098;2024-02-15T07:03:55;6.30;91.30
6462;DHT22;3264;42.862;25.098;2024-02-15T07:06:23;6.30;91.10
6462;DHT22;3264;42.862;25.098;2024-02-15T07:08:53;6.20;90.90
6462;DHT22;3264;42.862;25.098;2024-02-15T07:11:23;6.20;91.00
6462;DHT22;3264;42.862;25.098;2024-02-15T07:13:51;6.20;90.70
6462;DHT22;3264;42.862;25.098;2024-02-15T07:16:20;6.30;90.90
6462;DHT22;3264;42.862;25.098;2024-02-15T07:18:49;6.20;90.10
6462;DHT22;3264;42.862;25.098;2024-02-15T07:21:19;6.20;90.50
6462;DHT22;3264;42.862;25.098;2024-02-15T07:23:51;6.40;90.60
6462;DHT22;3264;42.862;25.098;2024-02-15T07:26:20;6.40;90.10
6462;DHT22;3264;42.862;25.098;2024-02-15T07:28:50;6.50;89.90
6462;DHT22;3264;42.862;25.098;2024-02-15T07:31:20;6.50;89.60
6462;DHT22;3264;42.862;25.098;2024-02-15T07:33:51;6.60;89.40
6462;DHT22;3264;42.862;25.098;2024-02-15T07:36:20;6.60;89.60
6462;DHT22;3264;42.862;25.098;2024-02-15T07:38:48;6.60;89.00
6462;DHT22;3264;42.862;25.098;2024-02-15T07:41:17;6.60;90.00
6462;DHT22;3264;42.862;25.098;2024-02-15T07:43:45;6.50;88.30
6462;DHT22;3264;42.862;25.098;2024-02-15T07:46:13;6.60;88.90
6462;DHT22;3264;42.862;25.098;2024-02-15T07:48:43;6.50;88.60
6462;DHT22;3264;42.862;25.098;2024-02-15T07:51:14;6.50;89.90
6462;DHT22;3264;42.862;25.098;2024-02-15T07:53:43;6.60;89.70
6462;DHT22;3264;42.862;25.098;2024-02-15T07:56:12;6.50;88.30
6462;DHT22;3264;42.862;25.098;2024-02-15T07:58:41;6.50;88.40
6462;DHT22;3264;42.862;25.098;2024-02-15T08:01:12;6.50;88.60
6462;DHT22;3264;42.862;25.098;2024-02-15T08:03:41;6.50;88.10
6462;DHT22;3264;42.862;25.098;2024-02-15T08:06:16;6.50;88.00
6462;DHT22;3264;42.862;25.098;2024-02-15T08:08:45;6.50;88.80
6462;DHT22;3264;42.862;25.098;2024-02-15T08:11:14;6.40;88.20
6462;DHT22;3264;42.862;25.098;2024-02-15T08:13:46;6.40;88.30
6462;DHT22;3264;42.862;25.098;2024-02-15T08:16:16;6.40;88.10
6462;DHT22;3264;42.862;25.098;2024-02-15T08:18:44;6.50;88.30
6462;DHT22;3264;42.862;25.098;2024-02-15T08:21:14;6.60;87.70
6462;DHT22;3264;42.862;25.098;2024-02-15T08:23:43;6.50;87.20
6462;DHT22;3264;42.862;25.098;2024-02-15T08:26:11;6.60;88.00
6462;DHT22;3264;42.862;25.098;2024-02-15T08:28:39;6.70;87.60
6462;DHT22;3264;42.862;25.098;2024-02-15T08:31:07;6.80;87.20
6462;DHT22;3264;42.862;25.098;2024-02-15T08:33:36;6.90;87.00
6462;DHT22;3264;42.862;25.098;2024-02-15T08:36:05;6.90;86.90
6462;DHT22;3264;42.862;25.098;2024-02-15T08:38:34;7.00;87.40
6462;DHT22;3264;42.862;25.098;2024-02-15T08:41:03;7.00;85.90
6462;DHT22;3264;42.862;25.098;2024-02-15T08:43:33;7.10;85.80
6462;DHT22;3264;42.862;25.098;2024-02-15T08:46:00;7.10;85.30
6462;DHT22;3264;42.862;25.098;2024-02-15T08:48:29;7.20;85.00
6462;DHT22;3264;42.862;25.098;2024-02-15T08:50:58;7.50;85.60
6462;DHT22;3264;42.862;25.098;2024-02-15T08:53:25;7.80;84.30
6462;DHT22;3264;42.862;25.098;2024-02-15T08:55:54;8.70;85.40
6462;DHT22;3264;42.862;25.098;2024-02-15T08:58:22;9.30;81.20
6462;DHT22;3264;42.862;25.098;2024-02-15T09:00:50;9.50;77.40
6462;DHT22;3264;42.862;25.098;2024-02-15T09:03:21;9.60;77.60
6462;DHT22;3264;42.862;25.098;2024-02-15T09:05:48;9.50;76.40
6462;DHT22;3264;42.862;25.098;2024-02-15T09:08:17;9.30;76.70
6462;DHT22;3264;42.862;25.098;2024-02-15T09:10:47;9.30;77.10
6462;DHT22;3264;42.862;25.098;2024-02-15T09:13:16;9.30;76.70
6462;DHT22;3264;42.862;25.098;2024-02-15T09:15:44;9.50;76.30
6462;DHT22;3264;42.862;25.098;2024-02-15T09:18:14;9.40;74.70
6462;DHT22;3264;42.862;25.098;2024-02-15T09:20:46;9.60;74.00
6462;DHT22;3264;42.862;25.098;2024-02-15T09:23:15;9.60;75.10
6462;DHT22;3264;42.862;25.098;2024-02-15T09:25:42;9.50;73.50
6462;DHT22;3264;42.862;25.098;2024-02-15T09:28:11;9.70;76.10
6462;DHT22;3264;42.862;25.098;2024-02-15T09:30:42;10.00;74.80
6462;DHT22;3264;42.862;25.098;2024-02-15T09:33:19;10.20;70.50
6462;DHT22;3264;42.862;25.098;2024-02-15T09:35:47;9.80;71.90
6462;DHT22;3264;42.862;25.098;2024-02-15T09:38:15;10.20;72.60
6462;DHT22;3264;42.862;25.098;2024-02-15T09:40:49;10.90;71.50
6462;DHT22;3264;42.862;25.098;2024-02-15T09:43:17;11.00;67.30
6462;DHT22;3264;42.862;25.098;2024-02-15T09:45:47;11.10;67.40
6462;DHT22;3264;42.862;25.098;2024-02-15T09:48:17;11.00;66.50
6462;DHT22;3264;42.862;25.098;2024-02-15T09:50:48;10.70;66.00
6462;DHT22;3264;42.862;25.098;2024-02-15T09:53:21;10.60;66.80
6462;DHT22;3264;42.862;25.098;2024-02-15T09:55:53;10.90;68.80
6462;DHT22;3264;42.862;25.098;2024-02-15T09:58:21;10.90;65.70
6462;DHT22;3264;42.862;25.098;2024-02-15T10:00:51;10.90;65.40
6462;DHT22;3264;42.862;25.098;2024-02-15T10:03:19;11.10;65.20
6462;DHT22;3264;42.862;25.098;2024-02-15T10:05:48;12.00;65.90
6462;DHT22;3264;42.862;25.098;2024-02-15T10:08:17;12.40;61.20
6462;DHT22;3264;42.862;25.098;2024-02-15T10:10:47;12.60;60.00
6462;DHT22;3264;42.862;25.098;2024-02-15T10:13:16;12.70;59.70
6462;DHT22;3264;42.862;25.098;2024-02-15T10:15:52;13.00;61.40
6462;DHT22;3264;42.862;25.098;2024-02-15T10:18:20;13.20;60.00
6462;DHT22;3264;42.862;25.098;2024-02-15T10:20:57;13.00;57.90
6462;DHT22;3264;42.862;25.098;2024-02-15T10:23:25;12.90;58.20
6462;DHT22;3264;42.862;25.098;2024-02-15T10:25:54;12.90;59.10
6462;DHT22;3264;42.862;25.098;2024-02-15T10:28:24;13.20;60.50
6462;DHT22;3264;42.862;25.098;2024-02-15T10:30:54;13.40;59.30
6462;DHT22;3264;42.862;25.098;2024-02-15T10:33:26;13.50;57.90
6462;DHT22;3264;42.862;25.098;2024-02-15T10:36:06;13.20;57.50
6462;DHT22;3264;42.862;25.098;2024-02-15T10:38:35;12.80;59.80
6462;DHT22;3264;42.862;25.098;2024-02-15T10:41:05;12.50;57.60
6462;DHT22;3264;42.862;25.098;2024-02-15T10:43:33;12.20;59.80
6462;DHT22;3264;42.862;25.098;2024-02-15T10:46:05;12.00;60.00
6462;DHT22;3264;42.862;25.098;2024-02-15T10:48:36;11.60;60.60
6462;DHT22;3264;42.862;25.098;2024-02-15T10:51:09;11.40;63.20
6462;DHT22;3264;42.862;25.098;2024-02-15T10:53:43;11.20;62.00
6462;DHT22;3264;42.862;25.098;2024-02-15T10:56:18;11.00;63.50
6462;DHT22;3264;42.862;25.098;2024-02-15T10:58:51;10.90;63.30
6462;DHT22;3264;42.862;25.098;2024-02-15T11:01:25;10.90;64.40
6462;DHT22;3264;42.862;25.098;2024-02-15T11:03:59;10.80;64.10
6462;DHT22;3264;42.862;25.098;2024-02-15T11:06:28;10.60;64.30
6462;DHT22;3264;42.862;25.098;2024-02-15T11:08:58;10.70;66.10
6462;DHT22;3264;42.862;25.098;2024-02-15T11:11:26;10.70;65.30
6462;DHT22;3264;42.862;25.098;2024-02-15T11:14:25;10.70;64.80
6462;DHT22;3264;42.862;25.098;2024-02-15T11:16:54;10.80;64.40
6462;DHT22;3264;42.862;25.098;2024-02-15T11:19:44;10.70;65.50
6462;DHT22;3264;42.862;25.098;2024-02-15T11:22:15;10.80;66.10
6462;DHT22;3264;42.862;25.098;2024-02-15T11:24:48;11.10;66.40
6462;DHT22;3264;42.862;25.098;2024-02-15T11:27:26;11.30;65.80
6462;DHT22;3264;42.862;25.098;2024-02-15T11:29:56;11.40;65.50
6462;DHT22;3264;42.862;25.098;2024-02-15T11:32:44;11.50;67.30
6462;DHT22;3264;42.862;25.098;2024-02-15T11:35:13;11.50;65.90
6462;DHT22;3264;42.862;25.098;2024-02-15T11:37:52;11.40;65.70
6462;DHT22;3264;42.862;25.098;2024-02-15T11:40:21;11.40;64.30
6462;DHT22;3264;42.862;25.098;2024-02-15T11:42:53;11.50;65.00
6462;DHT22;3264;42.862;25.098;2024-02-15T11:45:22;11.60;67.60
6462;DHT22;3264;42.862;25.098;2024-02-15T11:47:53;11.70;66.10
6462;DHT22;3264;42.862;25.098;2024-02-15T11:50:22;11.60;65.30
6462;DHT22;3264;42.862;25.098;2024-02-15T11:52:52;11.60;65.50
6462;DHT22;3264;42.862;25.098;2024-02-15T11:55:20;11.60;65.90
6462;DHT22;3264;42.862;25.098;2024-02-15T11:57:57;11.70;65.90
6462;DHT22;3264;42.862;25.098;2024-02-15T12:00:32;11.70;66.00
6462;DHT22;3264;42.862;25.098;2024-02-15T12:03:19;11.70;66.50
6462;DHT22;3264;42.862;25.098;2024-02-15T12:06:08;11.80;64.70
6462;DHT22;3264;42.862;25.098;2024-02-15T12:08:54;11.70;64.10
6462;DHT22;3264;42.862;25.098;2024-02-15T12:11:40;11.60;65.10
6462;DHT22;3264;42.862;25.098;2024-02-15T12:14:25;11.60;65.80
6462;DHT22;3264;42.862;25.098;2024-02-15T12:17:12;11.50;65.60
6462;DHT22;3264;42.862;25.098;2024-02-15T12:20:00;11.40;65.60
6462;DHT22;3264;42.862;25.098;2024-02-15T12:22:35;11.50;65.40
6462;DHT22;3264;42.862;25.098;2024-02-15T12:25:05;11.50;64.00
6462;DHT22;3264;42.862;25.098;2024-02-15T12:27:38;11.40;65.30
6462;DHT22;3264;42.862;25.098;2024-02-15T12:30:07;11.30;64.50
6462;DHT22;3264;42.862;25.098;2024-02-15T12:32:40;11.40;65.40
6462;DHT22;3264;42.862;25.098;2024-02-15T12:35:13;11.40;65.30
6462;DHT22;3264;42.862;25.098;2024-02-15T12:37:44;11.20;64.00
6462;DHT22;3264;42.862;25.098;2024-02-15T12:40:12;11.10;63.30
6462;DHT22;3264;42.862;25.098;2024-02-15T12:42:42;11.00;65.00
6462;DHT22;3264;42.862;25.098;2024-02-15T12:45:16;10.90;64.90
6462;DHT22;3264;42.862;25.098;2024-02-15T12:47:47;10.70;64.30
6462;DHT22;3264;42.862;25.098;2024-02-15T12:50:19;10.50;63.90
6462;DHT22;3264;42.862;25.098;2024-02-15T12:52:49;10.40;65.60
6462;DHT22;3264;42.862;25.098;2024-02-15T12:55:19;10.40;65.90
6462;DHT22;3264;42.862;25.098;2024-02-15T12:57:49;10.40;66.00
6462;DHT22;3264;42.862;25.098;2024-02-15T13:00:19;10.40;67.10
6462;DHT22;3264;42.862;25.098;2024-02-15T13:02:48;10.50;68.20
6462;DHT22;3264;42.862;25.098;2024-02-15T13:05:20;10.40;67.50
6462;DHT22;3264;42.862;25.098;2024-02-15T13:07:47;10.50;69.30
6462;DHT22;3264;42.862;25.098;2024-02-15T13:10:16;10.50;68.60
6462;DHT22;3264;42.862;25.098;2024-02-15T13:12:45;10.50;67.80
6462;DHT22;3264;42.862;25.098;2024-02-15T13:15:14;10.40;67.50
6462;DHT22;3264;42.862;25.098;2024-02-15T13:17:44;10.50;67.10
6462;DHT22;3264;42.862;25.098;2024-02-15T13:20:13;10.40;67.20
6462;DHT22;3264;42.862;25.098;2024-02-15T13:22:42;10.40;67.60
6462;DHT22;3264;42.862;25.098;2024-02-15T13:25:10;10.40;67.70
6462;DHT22;3264;42.862;25.098;2024-02-15T13:27:39;10.40;67.60
6462;DHT22;3264;42.862;25.098;2024-02-15T13:30:07;10.50;68.20
6462;DHT22;3264;42.862;25.098;2024-02-15T13:32:37;10.50;67.90
6462;DHT22;3264;42.862;25.098;2024-02-15T13:35:07;10.50;68.90
6462;DHT22;3264;42.862;25.098;2024-02-15T13:37:43;10.50;68.40
6462;DHT22;3264;42.862;25.098;2024-02-15T13:40:15;10.40;68.10
6462;DHT22;3264;42.862;25.098;2024-02-15T13:42:44;10.50;68.50
6462;DHT22;3264;42.862;25.098;2024-02-15T13:45:15;10.40;68.30
6462;DHT22;3264;42.862;25.098;2024-02-15T13:47:47;10.50;68.60
6462;DHT22;3264;42.862;25.098;2024-02-15T13:50:15;10.50;68.90
6462;DHT22;3264;42.862;25.098;2024-02-15T13:52:46;10.50;68.90
6462;DHT22;3264;42.862;25.098;2024-02-15T13:55:15;10.50;68.30
6462;DHT22;3264;42.862;25.098;2024-02-15T13:57:44;10.50;68.80
6462;DHT22;3264;42.862;25.098;2024-02-15T14:00:14;10.40;68.40
6462;DHT22;3264;42.862;25.098;2024-02-15T14:02:48;10.40;69.20
6462;DHT22;3264;42.862;25.098;2024-02-15T14:05:16;10.40;68.80
6462;DHT22;3264;42.862;25.098;2024-02-15T14:07:50;10.40;69.20
6462;DHT22;3264;42.862;25.098;2024-02-15T14:10:20;10.30;69.00
6462;DHT22;3264;42.862;25.098;2024-02-15T14:12:49;10.30;68.80
6462;DHT22;3264;42.862;25.098;2024-02-15T14:15:18;10.30;68.70
6462;DHT22;3264;42.862;25.098;2024-02-15T14:17:46;10.30;69.10
6462;DHT22;3264;42.862;25.098;2024-02-15T14:20:15;10.30;68.80
6462;DHT22;3264;42.862;25.098;2024-02-15T14:22:53;10.20;68.50
6462;DHT22;3264;42.862;25.098;2024-02-15T14:25:22;10.20;69.50
6462;DHT22;3264;42.862;25.098;2024-02-15T14:27:51;10.20;69.40
6462;DHT22;3264;42.862;25.098;2024-02-15T14:30:22;10.20;70.10
6462;DHT22;3264;42.862;25.098;2024-02-15T14:33:07;10.10;71.00
6462;DHT22;3264;42.862;25.098;2024-02-15T14:35:38;10.00;68.60
6462;DHT22;3264;42.862;25.098;2024-02-15T14:38:08;10.00;69.30
6462;DHT22;3264;42.862;25.098;2024-02-15T14:40:38;10.00;69.80
6462;DHT22;3264;42.862;25.098;2024-02-15T14:43:07;10.10;69.80
6462;DHT22;3264;42.862;25.098;2024-02-15T14:45:39;10.20;69.90
6462;DHT22;3264;42.862;25.098;2024-02-15T14:48:08;10.30;70.30
6462;DHT22;3264;42.862;25.098;2024-02-15T14:50:37;10.30;70.40
6462;DHT22;3264;42.862;25.098;2024-02-15T14:53:06;10.20;70.40
6462;DHT22;3264;42.862;25.098;2024-02-15T14:55:35;10.00;69.80
6462;DHT22;3264;42.862;25.098;2024-02-15T14:58:05;10.00;70.20
6462;DHT22;3264;42.862;25.098;2024-02-15T15:00:34;10.00;71.20
6462;DHT22;3264;42.862;25.098;2024-02-15T15:03:04;10.00;71.60
6462;DHT22;3264;42.862;25.098;2024-02-15T15:05:32;9.90;71.30
6462;DHT22;3264;42.862;25.098;2024-02-15T15:08:19;10.00;70.70
6462;DHT22;3264;42.862;25.098;2024-02-15T15:11:04;10.00;72.00
6462;DHT22;3264;42.862;25.098;2024-02-15T15:13:50;10.00;71.90
6462;DHT22;3264;42.862;25.098;2024-02-15T15:16:29;9.90;71.60
6462;DHT22;3264;42.862;25.098;2024-02-15T15:18:57;9.90;72.20
6462;DHT22;3264;42.862;25.098;2024-02-15T15:21:25;9.80;72.80
6462;DHT22;3264;42.862;25.098;2024-02-15T15:23:55;9.80;72.50
6462;DHT22;3264;42.862;25.098;2024-02-15T15:26:23;9.90;73.30
6462;DHT22;3264;42.862;25.098;2024-02-15T15:28:52;9.90;73.40
6462;DHT22;3264;42.862;25.098;2024-02-15T15:31:21;9.90;73.20
6462;DHT22;3264;42.862;25.098;2024-02-15T15:33:48;9.90;73.70
6462;DHT22;3264;42.862;25.098;2024-02-15T15:36:17;9.90;73.90
6462;DHT22;3264;42.862;25.098;2024-02-15T15:38:46;9.90;74.30
6462;DHT22;3264;42.862;25.098;2024-02-15T15:41:15;9.90;73.60
6462;DHT22;3264;42.862;25.098;2024-02-15T15:43:43;9.80;73.40
6462;DHT22;3264;42.862;25.098;2024-02-15T15:46:13;9.80;73.60
6462;DHT22;3264;42.862;25.098;2024-02-15T15:48:41;9.80;74.40
6462;DHT22;3264;42.862;25.098;2024-02-15T15:51:13;9.70;74.60
6462;DHT22;3264;42.862;25.098;2024-02-15T15:53:42;9.70;74.70
6462;DHT22;3264;42.862;25.098;2024-02-15T15:56:11;9.60;75.80
6462;DHT22;3264;42.862;25.098;2024-02-15T15:58:42;9.60;76.60
6462;DHT22;3264;42.862;25.098;2024-02-15T16:01:11;9.60;76.70
6462;DHT22;3264;42.862;25.098;2024-02-15T16:03:40;9.60;77.20
6462;DHT22;3264;42.862;25.098;2024-02-15T16:06:09;9.60;77.60
6462;DHT22;3264;42.862;25.098;2024-02-15T16:08:39;9.60;78.40
6462;DHT22;3264;42.862;25.098;2024-02-15T16:11:07;9.50;79.70
6462;DHT22;3264;42.862;25.098;2024-02-15T16:13:36;9.50;80.90
6462;DHT22;3264;42.862;25.098;2024-02-15T16:16:14;9.40;81.90
6462;DHT22;3264;42.862;25.098;2024-02-15T16:18:42;9.40;81.60